Buoy 41997

sailwx.info

Track history (hours):
 
Tides and Currents Weather Stations Pressure Air Temp Water Temp Dewpoint Dewpoint Depression Visibility Wind Speed Wind Dir Waves Ship Positions

Drifting buoy 41997

Last reported at 2014-Jul-25 12:15 UTC. Time now 2014-Jul-25 13:45 UTC.
Position N 31°25' W 028°50'.

Water temperature 25.1 ° C

Date/timePositionNaut miles runAvg speedWind from/ knotsBaromVisibWave heightAir tempDewpointWater temp
2014-Jul-25 12:15N 31°25' W 028°50'1 1.3 25.1
2014-Jul-25 11:30N 31°26' W 028°51'0 0.0 25.0
2014-Jul-25 11:15N 31°26' W 028°51'2 3.0 25.0
2014-Jul-25 10:30N 31°24' W 028°52'0 0.1 25.0
2014-Jul-25 07:30N 31°24' W 028°53'0 0.5 25.1
2014-Jul-25 07:00N 31°24' W 028°53'0 0.0 25.1
2014-Jul-25 06:45N 31°24' W 028°53'1 1.3 25.2
2014-Jul-25 05:45N 31°23' W 028°53'0 0.0 25.2
2014-Jul-25 05:30N 31°23' W 028°53'0 0.0 25.2
2014-Jul-25 05:00N 31°23' W 028°53'1 5.0 25.3
2014-Jul-25 04:45N 31°23' W 028°52'0 0.0 25.3
2014-Jul-25 03:15N 31°23' W 028°52'0 0.0 25.3
2014-Jul-25 03:00N 31°23' W 028°52'0 0.0 25.3
2014-Jul-25 00:00N 31°23' W 028°52'0 0.0 25.6
2014-Jul-24 23:45N 31°23' W 028°52'1 1.5 25.7
2014-Jul-24 23:15N 31°23' W 028°51'0 0.0 25.7
2014-Jul-24 23:00N 31°23' W 028°51'1 0.8 25.7
2014-Jul-24 22:15N 31°24' W 028°52'0 0.0 25.8
2014-Jul-24 22:00N 31°24' W 028°52'0 0.0 25.8
2014-Jul-24 21:30N 31°24' W 028°52'0 0.7 25.7
2014-Jul-24 21:15N 31°24' W 028°52'0 0.3 25.7
2014-Jul-24 19:45N 31°24' W 028°52'0 0.0 25.9
2014-Jul-24 19:00N 31°24' W 028°52'0 0.0 26.0
2014-Jul-24 18:45N 31°24' W 028°52'1 0.6 26.0
2014-Jul-24 17:30N 31°24' W 028°52'0 1.3 26.0
2014-Jul-24 17:15N 31°24' W 028°52'0 0.3 25.9
2014-Jul-24 16:30N 31°25' W 028°52'0 1.0 25.9
2014-Jul-24 16:15N 31°24' W 028°52'0 0.2 25.9
2014-Jul-24 14:45N 31°25' W 028°52'1 0.3 25.9
2014-Jul-24 12:30N 31°25' W 028°52'1 0.7 25.8
2014-Jul-24 11:45N 31°26' W 028°53'1 2.0 25.4
2014-Jul-24 11:00N 31°25' W 028°54'0 0.0 25.2
2014-Jul-24 10:45N 31°25' W 028°54'1 0.4 25.2
2014-Jul-24 09:15N 31°25' W 028°54'0 0.0 25.0
2014-Jul-24 09:00N 31°25' W 028°54'0 0.0 25.0
2014-Jul-24 07:45N 31°25' W 028°54'0 1.9 25.0
2014-Jul-24 07:30N 31°25' W 028°53'0 1.0 25.0
2014-Jul-24 07:15N 31°25' W 028°53'0 0.1 25.1
2014-Jul-24 06:15N 31°25' W 028°53'0 0.0 25.2
2014-Jul-24 06:00N 31°25' W 028°53'0 1.4 25.2
2014-Jul-24 05:45N 31°24' W 028°53'0 0.0 25.2
2014-Jul-24 05:00N 31°24' W 028°53'0 0.3 25.3
2014-Jul-24 03:30N 31°25' W 028°53'311.5 25.4
2014-Jul-24 03:15N 31°26' W 028°50'0 0.0 25.4
2014-Jul-24 00:15N 31°26' W 028°50'0 0.0 25.4
2014-Jul-23 23:30N 31°26' W 028°50'0 0.0 25.5
2014-Jul-23 23:15N 31°26' W 028°50'1 1.3 25.5
2014-Jul-23 22:30N 31°27' W 028°51'1 0.3 25.6
2014-Jul-23 20:15N 31°27' W 028°52'0 0.0 26.4
2014-Jul-23 18:30N 31°27' W 028°52'0 0.2 27.5
2014-Jul-23 18:00N 31°27' W 028°52'0 0.0 27.6
2014-Jul-23 17:45N 31°27' W 028°52'0 0.0 27.5
2014-Jul-23 17:30N 31°27' W 028°52'0 0.0 27.2
2014-Jul-23 17:15N 31°27' W 028°52'0 0.2 27.3
2014-Jul-23 16:30N 31°27' W 028°52'0 0.2 27.4
2014-Jul-23 15:00N 31°28' W 028°51'0 0.0 26.8
2014-Jul-23 14:45N 31°28' W 028°51'1 0.6 26.9
2014-Jul-23 13:00N 31°29' W 028°52'1 2.8 25.6
2014-Jul-23 12:45N 31°28' W 028°51'0 0.1 25.6
2014-Jul-23 12:15N 31°28' W 028°51'0 0.0 25.3
2014-Jul-23 12:00N 31°28' W 028°51'1 1.4 25.2
2014-Jul-23 11:15N 31°27' W 028°52'0 0.1 24.9
2014-Jul-23 08:15N 31°27' W 028°52'0 0.9 24.6
2014-Jul-23 08:00N 31°27' W 028°52'1 3.3 24.6
2014-Jul-23 07:45N 31°26' W 028°51'0 0.0 24.6
2014-Jul-23 07:30N 31°26' W 028°51'0 0.0 24.6
2014-Jul-23 06:45N 31°26' W 028°51'0 0.7 24.7
2014-Jul-23 06:15N 31°26' W 028°51'0 1.7 24.7
2014-Jul-23 06:00N 31°25' W 028°51'1 1.5 24.7
2014-Jul-23 05:15N 31°25' W 028°50'4 2.2 24.8
2014-Jul-23 03:30N 31°27' W 028°46'0 0.0 24.8
2014-Jul-22 23:45N 31°27' W 028°46'1 0.8 25.0
2014-Jul-22 23:00N 31°27' W 028°46'0 0.0 25.1
2014-Jul-22 22:45N 31°27' W 028°46'0 0.0 25.1
2014-Jul-22 22:15N 31°27' W 028°46'1 3.2 25.1
2014-Jul-22 22:00N 31°28' W 028°45'0 0.0 25.1
2014-Jul-22 20:45N 31°28' W 028°45'0 0.2 25.1
2014-Jul-22 19:15N 31°28' W 028°45'0 0.0 25.2
2014-Jul-22 19:00N 31°28' W 028°45'0 0.0 25.2
2014-Jul-22 18:30N 31°28' W 028°45'0 0.0 25.2
2014-Jul-22 18:15N 31°28' W 028°45'0 0.5 25.3
2014-Jul-22 17:45N 31°28' W 028°45'0 0.0 25.3
2014-Jul-22 17:30N 31°28' W 028°45'2 2.3 25.3
2014-Jul-22 16:45N 31°30' W 028°44'0 0.0 25.3
2014-Jul-22 15:15N 31°30' W 028°44'0 0.0 25.2
2014-Jul-22 15:00N 31°30' W 028°44'2 0.9 25.1
2014-Jul-22 12:30N 31°32' W 028°45'0 0.0 24.8
2014-Jul-22 12:15N 31°32' W 028°45'0 0.0 24.8
2014-Jul-22 11:45N 31°32' W 028°45'0 0.0 24.7
2014-Jul-22 11:30N 31°32' W 028°45'0 0.0 24.6
2014-Jul-22 10:45N 31°32' W 028°45'0 0.0 24.6
2014-Jul-22 08:45N 31°32' W 028°45'0 0.4 24.6
2014-Jul-22 08:00N 31°32' W 028°45'0 0.0 24.6
2014-Jul-22 07:45N 31°32' W 028°45'0 0.3 24.6
2014-Jul-22 07:00N 31°32' W 028°45'0 0.7 24.7
2014-Jul-22 06:45N 31°32' W 028°45'0 1.0 24.7
2014-Jul-22 06:15N 31°32' W 028°45'0 0.0 24.7
2014-Jul-22 06:00N 31°32' W 028°45'0 0.6 24.7
2014-Jul-22 05:30N 31°32' W 028°44'0 0.0 24.7
2014-Jul-22 05:15N 31°32' W 028°44'0 0.1 24.8
2014-Jul-22 03:45N 31°32' W 028°44'1 2.7 24.8
2014-Jul-22 03:30N 31°32' W 028°44'0 0.1 24.8
2014-Jul-21 23:15N 31°32' W 028°43'1 1.1 24.9
2014-Jul-21 22:30N 31°33' W 028°42'1 4.0 24.9
2014-Jul-21 22:15N 31°32' W 028°43'0 0.0 24.9
2014-Jul-21 21:15N 31°32' W 028°43'2 0.7 25.0
2014-Jul-21 18:45N 31°33' W 028°41'2 2.4 25.1
2014-Jul-21 17:45N 31°35' W 028°40'0 0.0 25.2
2014-Jul-21 15:15N 31°35' W 028°40'2 0.7 25.3
2014-Jul-21 12:00N 31°37' W 028°41'0 0.0 24.8
2014-Jul-21 11:45N 31°37' W 028°41'0 0.0 24.8
2014-Jul-21 11:15N 31°37' W 028°41'2 7.0 24.7
2014-Jul-21 11:00N 31°37' W 028°43'0 0.0 24.6
2014-Jul-21 10:15N 31°37' W 028°43'1 0.5 24.6
2014-Jul-21 09:00N 31°37' W 028°43'0 0.2 24.5
2014-Jul-21 07:30N 31°37' W 028°43'1 3.7 24.5
2014-Jul-21 07:15N 31°36' W 028°42'0 0.0 24.5
2014-Jul-21 06:30N 31°36' W 028°42'0 0.0 24.5
2014-Jul-21 06:15N 31°36' W 028°42'0 0.1 24.5
2014-Jul-21 05:30N 31°36' W 028°42'0 0.0 24.5
2014-Jul-21 04:45N 31°36' W 028°42'0 0.1 24.5
2014-Jul-21 04:00N 31°36' W 028°42'2 6.4 24.5
2014-Jul-21 03:45N 31°38' W 028°41'1 0.2 24.5
2014-Jul-20 22:45N 31°39' W 028°40'1 0.7 24.7
2014-Jul-20 22:00N 31°39' W 028°41'0 0.0 24.7
2014-Jul-20 21:45N 31°39' W 028°41'0 0.2 24.8
2014-Jul-20 20:00N 31°39' W 028°40'0 0.0 24.9
2014-Jul-20 19:15N 31°39' W 028°40'0 1.1 25.0
2014-Jul-20 19:00N 31°39' W 028°40'0 0.0 25.0
2014-Jul-20 18:30N 31°39' W 028°40'0 0.0 25.0
2014-Jul-20 18:00N 31°39' W 028°40'0 0.0 25.0
2014-Jul-20 17:45N 31°39' W 028°40'1 4.9 25.1
2014-Jul-20 17:30N 31°40' W 028°40'0 0.0 25.1
2014-Jul-20 15:30N 31°40' W 028°40'0 0.0 24.9
2014-Jul-20 15:15N 31°40' W 028°40'2 1.7 24.9
2014-Jul-20 13:45N 31°43' W 028°40'1 0.3 24.7
2014-Jul-20 12:15N 31°43' W 028°41'0 0.4 24.5
2014-Jul-20 11:30N 31°43' W 028°41'1 1.1 24.4
2014-Jul-20 10:45N 31°44' W 028°41'1 4.8 24.4
2014-Jul-20 10:30N 31°44' W 028°42'0 0.1 24.4
2014-Jul-20 08:00N 31°43' W 028°43'0 0.0 24.4
2014-Jul-20 07:45N 31°43' W 028°43'0 0.2 24.4
2014-Jul-20 06:45N 31°43' W 028°43'0 0.9 24.4
2014-Jul-20 06:15N 31°43' W 028°42'0 0.0 24.4
2014-Jul-20 05:45N 31°43' W 028°42'0 0.0 24.4
2014-Jul-20 04:15N 31°43' W 028°42'2 7.8 24.5
2014-Jul-20 04:00N 31°44' W 028°41'0 0.0 24.5
2014-Jul-20 00:00N 31°44' W 028°41'0 0.0 24.6
2014-Jul-19 23:45N 31°44' W 028°41'1 1.3 24.6
2014-Jul-19 23:15N 31°45' W 028°40'1 2.6 24.6
2014-Jul-19 23:00N 31°45' W 028°40'3 3.4 24.6
2014-Jul-19 22:15N 31°47' W 028°39'0 0.0 24.6
2014-Jul-19 20:30N 31°47' W 028°39'0 0.0 24.8
2014-Jul-19 19:00N 31°47' W 028°39'0 0.1 24.8
2014-Jul-19 18:15N 31°47' W 028°39'1 0.8 24.9
2014-Jul-19 16:30N 31°49' W 028°38'1 1.8 24.9
2014-Jul-19 15:45N 31°50' W 028°38'0 0.0 24.9
2014-Jul-19 15:30N 31°50' W 028°38'3 1.0 24.9
2014-Jul-19 12:30N 31°53' W 028°40'0 0.0 24.7
2014-Jul-19 12:00N 31°53' W 028°40'0 0.5 24.7
2014-Jul-19 11:45N 31°53' W 028°40'2 2.3 24.7
2014-Jul-19 11:00N 31°53' W 028°42'0 0.0 24.6
2014-Jul-19 10:45N 31°53' W 028°42'1 0.2 24.6
2014-Jul-19 08:15N 31°54' W 028°42'0 0.0 24.6
2014-Jul-19 06:45N 31°54' W 028°42'0 0.6 24.7
2014-Jul-19 06:30N 31°54' W 028°42'0 0.0 24.7
2014-Jul-19 05:15N 31°54' W 028°42'1 2.9 24.8
2014-Jul-19 05:00N 31°54' W 028°42'3 4.6 24.8
2014-Jul-19 04:15N 31°57' W 028°40'0 0.0 24.8
2014-Jul-19 00:15N 31°57' W 028°40'1 1.2 24.9
2014-Jul-18 23:30N 31°58' W 028°40'0 0.0 24.9
2014-Jul-18 23:15N 31°58' W 028°40'0 0.0 24.9
2014-Jul-18 22:45N 31°58' W 028°40'519.0 24.9
2014-Jul-18 22:30N 32°03' W 028°40'0 0.0 24.9
2014-Jul-18 21:00N 32°03' W 028°40'1 0.9 24.9
2014-Jul-18 19:30N 32°04' W 028°41'0 0.0 25.1
2014-Jul-18 18:30N 32°04' W 028°41'0 0.0 25.1
2014-Jul-18 18:15N 32°04' W 028°41'2 1.5 25.1
2014-Jul-18 16:45N 32°06' W 028°42'0 0.0 25.0
2014-Jul-18 16:30N 32°06' W 028°42'1 2.5 24.9
2014-Jul-18 16:00N 32°07' W 028°43'0 0.0 24.9
2014-Jul-18 15:45N 32°07' W 028°43'2 1.3 24.9
2014-Jul-18 14:15N 32°08' W 028°44'0 0.0 25.0
2014-Jul-18 14:00N 32°08' W 028°44'3 1.6 24.9
2014-Jul-18 12:15N 32°10' W 028°47'0 0.0 24.9
2014-Jul-18 12:00N 32°10' W 028°47'2 3.1 24.9
2014-Jul-18 11:15N 32°11' W 028°49'1 1.5 24.8
2014-Jul-18 10:30N 32°13' W 028°50'0 0.0 24.8
2014-Jul-18 09:00N 32°13' W 028°50'0 0.0 24.8
2014-Jul-18 08:45N 32°13' W 028°50'0 0.0 24.8
2014-Jul-18 07:15N 32°13' W 028°50'2 9.5 24.8
2014-Jul-18 07:00N 32°15' W 028°51'1 0.5 24.8
2014-Jul-18 05:15N 32°16' W 028°51'7 9.9 24.8
2014-Jul-18 04:30N 32°23' W 028°54'0 0.0 24.9
2014-Jul-18 04:15N 32°23' W 028°54'0 0.0 24.9
2014-Jul-18 02:45N 32°23' W 028°54'0 0.0 24.9
2014-Jul-18 00:45N 32°23' W 028°54'0 0.0 24.9
2014-Jul-18 00:30N 32°23' W 028°54'0 0.0 24.9
2014-Jul-17 23:45N 32°23' W 028°54'0 0.0 25.0
2014-Jul-17 23:00N 32°23' W 028°54'0 0.0 25.0
2014-Jul-17 22:45N 32°23' W 028°54'0 0.0 25.0
2014-Jul-17 22:15N 32°23' W 028°54'0 0.0 25.0
2014-Jul-17 22:00N 32°23' W 028°54'1 5.3 25.0
2014-Jul-17 21:45N 32°23' W 028°55'2 1.4 25.0
2014-Jul-17 20:00N 32°26' W 028°56'0 0.2 25.1
2014-Jul-17 18:45N 32°26' W 028°56'1 4.3 25.2
2014-Jul-17 18:30N 32°26' W 028°54'2 1.6 25.3
2014-Jul-17 17:00N 32°28' W 028°56'0 0.0 25.5
2014-Jul-17 16:45N 32°28' W 028°56'1 1.7 25.5
2014-Jul-17 16:00N 32°29' W 028°57'2 1.7 25.3
2014-Jul-17 14:30N 32°31' W 028°57'0 0.0 25.2
2014-Jul-17 14:15N 32°31' W 028°57'9 3.5 25.1
2014-Jul-17 11:45N 32°37' W 029°05'0 0.0 24.8
2014-Jul-17 11:30N 32°37' W 029°05'0 0.0 24.8
2014-Jul-17 07:45N 32°37' W 029°05'1 2.5 24.6
2014-Jul-17 07:30N 32°38' W 029°05'0 0.3 24.6
2014-Jul-17 07:15N 32°38' W 029°05'0 1.3 24.6
2014-Jul-17 07:00N 32°38' W 029°06'0 0.0 24.6
2014-Jul-17 06:15N 32°38' W 029°06'0 0.0 24.6
2014-Jul-17 06:00N 32°38' W 029°06'2 3.6 24.6
2014-Jul-17 05:30N 32°39' W 029°07'0 0.0 24.7
2014-Jul-17 04:45N 32°39' W 029°07'313.3 24.7
2014-Jul-17 04:30N 32°41' W 029°10'1 0.2 24.7
2014-Jul-16 23:15N 32°42' W 029°10'1 1.4 24.7
2014-Jul-16 22:30N 32°43' W 029°10'0 0.3 24.7
2014-Jul-16 21:45N 32°43' W 029°10'313.9 24.8
2014-Jul-16 21:30N 32°47' W 029°10'0 0.1 24.8
2014-Jul-16 20:30N 32°47' W 029°10'0 0.0 24.8
2014-Jul-16 19:15N 32°47' W 029°10'1 2.3 24.9
2014-Jul-16 19:00N 32°47' W 029°11'2 7.4 24.9
2014-Jul-16 18:45N 32°49' W 029°12'0 0.0 24.9
2014-Jul-16 17:30N 32°49' W 029°12'2 4.3 24.9
2014-Jul-16 17:00N 32°50' W 029°14'0 0.5 24.9
2014-Jul-16 16:15N 32°50' W 029°14'0 0.0 24.9
2014-Jul-16 16:00N 32°50' W 029°14'2 1.0 24.9
2014-Jul-16 14:30N 32°50' W 029°16'5 1.6 24.9
2014-Jul-16 11:15N 32°54' W 029°21'0 0.0 24.8
2014-Jul-16 10:15N 32°54' W 029°21'1 0.5 24.7
2014-Jul-16 07:45N 32°55' W 029°21'0 0.0 24.7
2014-Jul-16 07:30N 32°55' W 029°21'1 5.3 24.7
2014-Jul-16 07:15N 32°56' W 029°22'0 0.0 24.7
2014-Jul-16 06:45N 32°56' W 029°22'1 1.9 24.8
2014-Jul-16 06:15N 32°56' W 029°23'0 0.2 24.8
2014-Jul-16 06:00N 32°56' W 029°23'1 3.9 24.8
2014-Jul-16 05:45N 32°57' W 029°24'0 0.0 24.8
2014-Jul-16 05:00N 32°57' W 029°24'1 2.8 24.8
2014-Jul-16 04:45N 32°57' W 029°25'0 0.2 24.8
2014-Jul-16 03:00N 32°57' W 029°25'0 0.0 24.8
2014-Jul-15 23:45N 32°57' W 029°25'0 0.1 24.8
2014-Jul-15 23:00N 32°57' W 029°25'0 0.0 24.8
2014-Jul-15 22:45N 32°57' W 029°25'4 5.0 24.8
2014-Jul-15 22:00N 33°00' W 029°24'0 0.3 24.8
2014-Jul-15 21:00N 33°01' W 029°24'1 0.6 25.0
2014-Jul-15 19:30N 33°02' W 029°25'0 0.0 25.2
2014-Jul-15 19:15N 33°02' W 029°25'0 0.0 25.3
2014-Jul-15 19:00N 33°02' W 029°25'0 0.0 25.5
2014-Jul-15 18:45N 33°02' W 029°25'1 2.0 25.5
2014-Jul-15 18:00N 33°03' W 029°25'0 0.0 25.7
2014-Jul-15 17:45N 33°03' W 029°25'2 4.0 25.6
2014-Jul-15 17:15N 33°05' W 029°26'0 0.4 25.7
2014-Jul-15 16:30N 33°05' W 029°26'0 0.0 25.9
2014-Jul-15 16:15N 33°05' W 029°26'5 3.1 25.8
2014-Jul-15 14:45N 33°09' W 029°29'0 0.0 25.5
2014-Jul-15 12:30N 33°09' W 029°29'1 2.8 24.9
2014-Jul-15 12:15N 33°09' W 029°30'   24.8
Track history (hours):
 
Tides and Currents Weather Stations Pressure Air Temp Water Temp Dewpoint Dewpoint Depression Visibility Wind Speed Wind Dir Waves Ship Positions

Drifting buoy 41997

Last reported at 2014-Jul-25 12:15 UTC. Time now 2014-Jul-25 13:45 UTC.
Position N 31°25' W 028°50'.

Water temperature 25.1 ° C

Date/timePositionNaut miles runAvg speedWind from/ knotsBaromVisibWave heightAir tempDewpointWater temp
2014-Jul-25 12:15N 31°25' W 028°50'1 1.3 25.1
2014-Jul-25 11:30N 31°26' W 028°51'0 0.0 25.0
2014-Jul-25 11:15N 31°26' W 028°51'2 3.0 25.0
2014-Jul-25 10:30N 31°24' W 028°52'0 0.1 25.0
2014-Jul-25 07:30N 31°24' W 028°53'0 0.5 25.1
2014-Jul-25 07:00N 31°24' W 028°53'0 0.0 25.1
2014-Jul-25 06:45N 31°24' W 028°53'1 1.3 25.2
2014-Jul-25 05:45N 31°23' W 028°53'0 0.0 25.2
2014-Jul-25 05:30N 31°23' W 028°53'0 0.0 25.2
2014-Jul-25 05:00N 31°23' W 028°53'1 5.0 25.3
2014-Jul-25 04:45N 31°23' W 028°52'0 0.0 25.3
2014-Jul-25 03:15N 31°23' W 028°52'0 0.0 25.3
2014-Jul-25 03:00N 31°23' W 028°52'0 0.0 25.3
2014-Jul-25 00:00N 31°23' W 028°52'0 0.0 25.6
2014-Jul-24 23:45N 31°23' W 028°52'1 1.5 25.7
2014-Jul-24 23:15N 31°23' W 028°51'0 0.0 25.7
2014-Jul-24 23:00N 31°23' W 028°51'1 0.8 25.7
2014-Jul-24 22:15N 31°24' W 028°52'0 0.0 25.8
2014-Jul-24 22:00N 31°24' W 028°52'0 0.0 25.8
2014-Jul-24 21:30N 31°24' W 028°52'0 0.7 25.7
2014-Jul-24 21:15N 31°24' W 028°52'0 0.3 25.7
2014-Jul-24 19:45N 31°24' W 028°52'0 0.0 25.9
2014-Jul-24 19:00N 31°24' W 028°52'0 0.0 26.0
2014-Jul-24 18:45N 31°24' W 028°52'1 0.6 26.0
2014-Jul-24 17:30N 31°24' W 028°52'0 1.3 26.0
2014-Jul-24 17:15N 31°24' W 028°52'0 0.3 25.9
2014-Jul-24 16:30N 31°25' W 028°52'0 1.0 25.9
2014-Jul-24 16:15N 31°24' W 028°52'0 0.2 25.9
2014-Jul-24 14:45N 31°25' W 028°52'1 0.3 25.9
2014-Jul-24 12:30N 31°25' W 028°52'1 0.7 25.8
2014-Jul-24 11:45N 31°26' W 028°53'1 2.0 25.4
2014-Jul-24 11:00N 31°25' W 028°54'0 0.0 25.2
2014-Jul-24 10:45N 31°25' W 028°54'1 0.4 25.2
2014-Jul-24 09:15N 31°25' W 028°54'0 0.0 25.0
2014-Jul-24 09:00N 31°25' W 028°54'0 0.0 25.0
2014-Jul-24 07:45N 31°25' W 028°54'0 1.9 25.0
2014-Jul-24 07:30N 31°25' W 028°53'0 1.0 25.0
2014-Jul-24 07:15N 31°25' W 028°53'0 0.1 25.1
2014-Jul-24 06:15N 31°25' W 028°53'0 0.0 25.2
2014-Jul-24 06:00N 31°25' W 028°53'0 1.4 25.2
2014-Jul-24 05:45N 31°24' W 028°53'0 0.0 25.2
2014-Jul-24 05:00N 31°24' W 028°53'0 0.3 25.3
2014-Jul-24 03:30N 31°25' W 028°53'311.5 25.4
2014-Jul-24 03:15N 31°26' W 028°50'0 0.0 25.4
2014-Jul-24 00:15N 31°26' W 028°50'0 0.0 25.4
2014-Jul-23 23:30N 31°26' W 028°50'0 0.0 25.5
2014-Jul-23 23:15N 31°26' W 028°50'1 1.3 25.5
2014-Jul-23 22:30N 31°27' W 028°51'1 0.3 25.6
2014-Jul-23 20:15N 31°27' W 028°52'0 0.0 26.4
2014-Jul-23 18:30N 31°27' W 028°52'0 0.2 27.5
2014-Jul-23 18:00N 31°27' W 028°52'0 0.0 27.6
2014-Jul-23 17:45N 31°27' W 028°52'0 0.0 27.5
2014-Jul-23 17:30N 31°27' W 028°52'0 0.0 27.2
2014-Jul-23 17:15N 31°27' W 028°52'0 0.2 27.3
2014-Jul-23 16:30N 31°27' W 028°52'0 0.2 27.4
2014-Jul-23 15:00N 31°28' W 028°51'0 0.0 26.8
2014-Jul-23 14:45N 31°28' W 028°51'1 0.6 26.9
2014-Jul-23 13:00N 31°29' W 028°52'1 2.8 25.6
2014-Jul-23 12:45N 31°28' W 028°51'0 0.1 25.6
2014-Jul-23 12:15N 31°28' W 028°51'0 0.0 25.3
2014-Jul-23 12:00N 31°28' W 028°51'1 1.4 25.2
2014-Jul-23 11:15N 31°27' W 028°52'0 0.1 24.9
2014-Jul-23 08:15N 31°27' W 028°52'0 0.9 24.6
2014-Jul-23 08:00N 31°27' W 028°52'1 3.3 24.6
2014-Jul-23 07:45N 31°26' W 028°51'0 0.0 24.6
2014-Jul-23 07:30N 31°26' W 028°51'0 0.0 24.6
2014-Jul-23 06:45N 31°26' W 028°51'0 0.7 24.7
2014-Jul-23 06:15N 31°26' W 028°51'0 1.7 24.7
2014-Jul-23 06:00N 31°25' W 028°51'1 1.5 24.7
2014-Jul-23 05:15N 31°25' W 028°50'4 2.2 24.8
2014-Jul-23 03:30N 31°27' W 028°46'0 0.0 24.8
2014-Jul-22 23:45N 31°27' W 028°46'1 0.8 25.0
2014-Jul-22 23:00N 31°27' W 028°46'0 0.0 25.1
2014-Jul-22 22:45N 31°27' W 028°46'0 0.0 25.1
2014-Jul-22 22:15N 31°27' W 028°46'1 3.2 25.1
2014-Jul-22 22:00N 31°28' W 028°45'0 0.0 25.1
2014-Jul-22 20:45N 31°28' W 028°45'0 0.2 25.1
2014-Jul-22 19:15N 31°28' W 028°45'0 0.0 25.2
2014-Jul-22 19:00N 31°28' W 028°45'0 0.0 25.2
2014-Jul-22 18:30N 31°28' W 028°45'0 0.0 25.2
2014-Jul-22 18:15N 31°28' W 028°45'0 0.5 25.3
2014-Jul-22 17:45N 31°28' W 028°45'0 0.0 25.3
2014-Jul-22 17:30N 31°28' W 028°45'2 2.3 25.3
2014-Jul-22 16:45N 31°30' W 028°44'0 0.0 25.3
2014-Jul-22 15:15N 31°30' W 028°44'0 0.0 25.2
2014-Jul-22 15:00N 31°30' W 028°44'2 0.9 25.1
2014-Jul-22 12:30N 31°32' W 028°45'0 0.0 24.8
2014-Jul-22 12:15N 31°32' W 028°45'0 0.0 24.8
2014-Jul-22 11:45N 31°32' W 028°45'0 0.0 24.7
2014-Jul-22 11:30N 31°32' W 028°45'0 0.0 24.6
2014-Jul-22 10:45N 31°32' W 028°45'0 0.0 24.6
2014-Jul-22 08:45N 31°32' W 028°45'0 0.4 24.6
2014-Jul-22 08:00N 31°32' W 028°45'0 0.0 24.6
2014-Jul-22 07:45N 31°32' W 028°45'0 0.3 24.6
2014-Jul-22 07:00N 31°32' W 028°45'0 0.7 24.7
2014-Jul-22 06:45N 31°32' W 028°45'0 1.0 24.7
2014-Jul-22 06:15N 31°32' W 028°45'0 0.0 24.7
2014-Jul-22 06:00N 31°32' W 028°45'0 0.6 24.7
2014-Jul-22 05:30N 31°32' W 028°44'0 0.0 24.7
2014-Jul-22 05:15N 31°32' W 028°44'0 0.1 24.8
2014-Jul-22 03:45N 31°32' W 028°44'1 2.7 24.8
2014-Jul-22 03:30N 31°32' W 028°44'0 0.1 24.8
2014-Jul-21 23:15N 31°32' W 028°43'1 1.1 24.9
2014-Jul-21 22:30N 31°33' W 028°42'1 4.0 24.9
2014-Jul-21 22:15N 31°32' W 028°43'0 0.0 24.9
2014-Jul-21 21:15N 31°32' W 028°43'2 0.7 25.0
2014-Jul-21 18:45N 31°33' W 028°41'2 2.4 25.1
2014-Jul-21 17:45N 31°35' W 028°40'0 0.0 25.2
2014-Jul-21 15:15N 31°35' W 028°40'2 0.7 25.3
2014-Jul-21 12:00N 31°37' W 028°41'0 0.0 24.8
2014-Jul-21 11:45N 31°37' W 028°41'0 0.0 24.8
2014-Jul-21 11:15N 31°37' W 028°41'2 7.0 24.7
2014-Jul-21 11:00N 31°37' W 028°43'0 0.0 24.6
2014-Jul-21 10:15N 31°37' W 028°43'1 0.5 24.6
2014-Jul-21 09:00N 31°37' W 028°43'0 0.2 24.5
2014-Jul-21 07:30N 31°37' W 028°43'1 3.7 24.5
2014-Jul-21 07:15N 31°36' W 028°42'0 0.0 24.5
2014-Jul-21 06:30N 31°36' W 028°42'0 0.0 24.5
2014-Jul-21 06:15N 31°36' W 028°42'0 0.1 24.5
2014-Jul-21 05:30N 31°36' W 028°42'0 0.0 24.5
2014-Jul-21 04:45N 31°36' W 028°42'0 0.1 24.5
2014-Jul-21 04:00N 31°36' W 028°42'2 6.4 24.5
2014-Jul-21 03:45N 31°38' W 028°41'1 0.2 24.5
2014-Jul-20 22:45N 31°39' W 028°40'1 0.7 24.7
2014-Jul-20 22:00N 31°39' W 028°41'0 0.0 24.7
2014-Jul-20 21:45N 31°39' W 028°41'0 0.2 24.8
2014-Jul-20 20:00N 31°39' W 028°40'0 0.0 24.9
2014-Jul-20 19:15N 31°39' W 028°40'0 1.1 25.0
2014-Jul-20 19:00N 31°39' W 028°40'0 0.0 25.0
2014-Jul-20 18:30N 31°39' W 028°40'0 0.0 25.0
2014-Jul-20 18:00N 31°39' W 028°40'0 0.0 25.0
2014-Jul-20 17:45N 31°39' W 028°40'1 4.9 25.1
2014-Jul-20 17:30N 31°40' W 028°40'0 0.0 25.1
2014-Jul-20 15:30N 31°40' W 028°40'0 0.0 24.9
2014-Jul-20 15:15N 31°40' W 028°40'2 1.7 24.9
2014-Jul-20 13:45N 31°43' W 028°40'1 0.3 24.7
2014-Jul-20 12:15N 31°43' W 028°41'0 0.4 24.5
2014-Jul-20 11:30N 31°43' W 028°41'1 1.1 24.4
2014-Jul-20 10:45N 31°44' W 028°41'1 4.8 24.4
2014-Jul-20 10:30N 31°44' W 028°42'0 0.1 24.4
2014-Jul-20 08:00N 31°43' W 028°43'0 0.0 24.4
2014-Jul-20 07:45N 31°43' W 028°43'0 0.2 24.4
2014-Jul-20 06:45N 31°43' W 028°43'0 0.9 24.4
2014-Jul-20 06:15N 31°43' W 028°42'0 0.0 24.4
2014-Jul-20 05:45N 31°43' W 028°42'0 0.0 24.4
2014-Jul-20 04:15N 31°43' W 028°42'2 7.8 24.5
2014-Jul-20 04:00N 31°44' W 028°41'0 0.0 24.5
2014-Jul-20 00:00N 31°44' W 028°41'0 0.0 24.6
2014-Jul-19 23:45N 31°44' W 028°41'1 1.3 24.6
2014-Jul-19 23:15N 31°45' W 028°40'1 2.6 24.6
2014-Jul-19 23:00N 31°45' W 028°40'3 3.4 24.6
2014-Jul-19 22:15N 31°47' W 028°39'0 0.0 24.6
2014-Jul-19 20:30N 31°47' W 028°39'0 0.0 24.8
2014-Jul-19 19:00N 31°47' W 028°39'0 0.1 24.8
2014-Jul-19 18:15N 31°47' W 028°39'1 0.8 24.9
2014-Jul-19 16:30N 31°49' W 028°38'1 1.8 24.9
2014-Jul-19 15:45N 31°50' W 028°38'0 0.0 24.9
2014-Jul-19 15:30N 31°50' W 028°38'3 1.0 24.9
2014-Jul-19 12:30N 31°53' W 028°40'0 0.0 24.7
2014-Jul-19 12:00N 31°53' W 028°40'0 0.5 24.7
2014-Jul-19 11:45N 31°53' W 028°40'2 2.3 24.7
2014-Jul-19 11:00N 31°53' W 028°42'0 0.0 24.6
2014-Jul-19 10:45N 31°53' W 028°42'1 0.2 24.6
2014-Jul-19 08:15N 31°54' W 028°42'0 0.0 24.6
2014-Jul-19 06:45N 31°54' W 028°42'0 0.6 24.7
2014-Jul-19 06:30N 31°54' W 028°42'0 0.0 24.7
2014-Jul-19 05:15N 31°54' W 028°42'1 2.9 24.8
2014-Jul-19 05:00N 31°54' W 028°42'3 4.6 24.8
2014-Jul-19 04:15N 31°57' W 028°40'0 0.0 24.8
2014-Jul-19 00:15N 31°57' W 028°40'1 1.2 24.9
2014-Jul-18 23:30N 31°58' W 028°40'0 0.0 24.9
2014-Jul-18 23:15N 31°58' W 028°40'0 0.0 24.9
2014-Jul-18 22:45N 31°58' W 028°40'519.0 24.9
2014-Jul-18 22:30N 32°03' W 028°40'0 0.0 24.9
2014-Jul-18 21:00N 32°03' W 028°40'1 0.9 24.9
2014-Jul-18 19:30N 32°04' W 028°41'0 0.0 25.1
2014-Jul-18 18:30N 32°04' W 028°41'0 0.0 25.1
2014-Jul-18 18:15N 32°04' W 028°41'2 1.5 25.1
2014-Jul-18 16:45N 32°06' W 028°42'0 0.0 25.0
2014-Jul-18 16:30N 32°06' W 028°42'1 2.5 24.9
2014-Jul-18 16:00N 32°07' W 028°43'0 0.0 24.9
2014-Jul-18 15:45N 32°07' W 028°43'2 1.3 24.9
2014-Jul-18 14:15N 32°08' W 028°44'0 0.0 25.0
2014-Jul-18 14:00N 32°08' W 028°44'3 1.6 24.9
2014-Jul-18 12:15N 32°10' W 028°47'0 0.0 24.9
2014-Jul-18 12:00N 32°10' W 028°47'2 3.1 24.9
2014-Jul-18 11:15N 32°11' W 028°49'1 1.5 24.8
2014-Jul-18 10:30N 32°13' W 028°50'0 0.0 24.8
2014-Jul-18 09:00N 32°13' W 028°50'0 0.0 24.8
2014-Jul-18 08:45N 32°13' W 028°50'0 0.0 24.8
2014-Jul-18 07:15N 32°13' W 028°50'2 9.5 24.8
2014-Jul-18 07:00N 32°15' W 028°51'1 0.5 24.8
2014-Jul-18 05:15N 32°16' W 028°51'7 9.9 24.8
2014-Jul-18 04:30N 32°23' W 028°54'0 0.0 24.9
2014-Jul-18 04:15N 32°23' W 028°54'0 0.0 24.9
2014-Jul-18 02:45N 32°23' W 028°54'0 0.0 24.9
2014-Jul-18 00:45N 32°23' W 028°54'0 0.0 24.9
2014-Jul-18 00:30N 32°23' W 028°54'0 0.0 24.9
2014-Jul-17 23:45N 32°23' W 028°54'0 0.0 25.0
2014-Jul-17 23:00N 32°23' W 028°54'0 0.0 25.0
2014-Jul-17 22:45N 32°23' W 028°54'0 0.0 25.0
2014-Jul-17 22:15N 32°23' W 028°54'0 0.0 25.0
2014-Jul-17 22:00N 32°23' W 028°54'1 5.3 25.0
2014-Jul-17 21:45N 32°23' W 028°55'2 1.4 25.0
2014-Jul-17 20:00N 32°26' W 028°56'0 0.2 25.1
2014-Jul-17 18:45N 32°26' W 028°56'1 4.3 25.2
2014-Jul-17 18:30N 32°26' W 028°54'2 1.6 25.3
2014-Jul-17 17:00N 32°28' W 028°56'0 0.0 25.5
2014-Jul-17 16:45N 32°28' W 028°56'1 1.7 25.5
2014-Jul-17 16:00N 32°29' W 028°57'2 1.7 25.3
2014-Jul-17 14:30N 32°31' W 028°57'0 0.0 25.2
2014-Jul-17 14:15N 32°31' W 028°57'9 3.5 25.1
2014-Jul-17 11:45N 32°37' W 029°05'0 0.0 24.8
2014-Jul-17 11:30N 32°37' W 029°05'0 0.0 24.8
2014-Jul-17 07:45N 32°37' W 029°05'1 2.5 24.6
2014-Jul-17 07:30N 32°38' W 029°05'0 0.3 24.6
2014-Jul-17 07:15N 32°38' W 029°05'0 1.3 24.6
2014-Jul-17 07:00N 32°38' W 029°06'0 0.0 24.6
2014-Jul-17 06:15N 32°38' W 029°06'0 0.0 24.6
2014-Jul-17 06:00N 32°38' W 029°06'2 3.6 24.6
2014-Jul-17 05:30N 32°39' W 029°07'0 0.0 24.7
2014-Jul-17 04:45N 32°39' W 029°07'313.3 24.7
2014-Jul-17 04:30N 32°41' W 029°10'1 0.2 24.7
2014-Jul-16 23:15N 32°42' W 029°10'1 1.4 24.7
2014-Jul-16 22:30N 32°43' W 029°10'0 0.3 24.7
2014-Jul-16 21:45N 32°43' W 029°10'313.9 24.8
2014-Jul-16 21:30N 32°47' W 029°10'0 0.1 24.8
2014-Jul-16 20:30N 32°47' W 029°10'0 0.0 24.8
2014-Jul-16 19:15N 32°47' W 029°10'1 2.3 24.9
2014-Jul-16 19:00N 32°47' W 029°11'2 7.4 24.9
2014-Jul-16 18:45N 32°49' W 029°12'0 0.0 24.9
2014-Jul-16 17:30N 32°49' W 029°12'2 4.3 24.9
2014-Jul-16 17:00N 32°50' W 029°14'0 0.5 24.9
2014-Jul-16 16:15N 32°50' W 029°14'0 0.0 24.9
2014-Jul-16 16:00N 32°50' W 029°14'2 1.0 24.9
2014-Jul-16 14:30N 32°50' W 029°16'5 1.6 24.9
2014-Jul-16 11:15N 32°54' W 029°21'0 0.0 24.8
2014-Jul-16 10:15N 32°54' W 029°21'1 0.5 24.7
2014-Jul-16 07:45N 32°55' W 029°21'0 0.0 24.7
2014-Jul-16 07:30N 32°55' W 029°21'1 5.3 24.7
2014-Jul-16 07:15N 32°56' W 029°22'0 0.0 24.7
2014-Jul-16 06:45N 32°56' W 029°22'1 1.9 24.8
2014-Jul-16 06:15N 32°56' W 029°23'0 0.2 24.8
2014-Jul-16 06:00N 32°56' W 029°23'1 3.9 24.8
2014-Jul-16 05:45N 32°57' W 029°24'0 0.0 24.8
2014-Jul-16 05:00N 32°57' W 029°24'1 2.8 24.8
2014-Jul-16 04:45N 32°57' W 029°25'0 0.2 24.8
2014-Jul-16 03:00N 32°57' W 029°25'0 0.0 24.8
2014-Jul-15 23:45N 32°57' W 029°25'0 0.1 24.8
2014-Jul-15 23:00N 32°57' W 029°25'0 0.0 24.8
2014-Jul-15 22:45N 32°57' W 029°25'4 5.0 24.8
2014-Jul-15 22:00N 33°00' W 029°24'0 0.3 24.8
2014-Jul-15 21:00N 33°01' W 029°24'1 0.6 25.0
2014-Jul-15 19:30N 33°02' W 029°25'0 0.0 25.2
2014-Jul-15 19:15N 33°02' W 029°25'0 0.0 25.3
2014-Jul-15 19:00N 33°02' W 029°25'0 0.0 25.5
2014-Jul-15 18:45N 33°02' W 029°25'1 2.0 25.5
2014-Jul-15 18:00N 33°03' W 029°25'0 0.0 25.7
2014-Jul-15 17:45N 33°03' W 029°25'2 4.0 25.6
2014-Jul-15 17:15N 33°05' W 029°26'0 0.4 25.7
2014-Jul-15 16:30N 33°05' W 029°26'0 0.0 25.9
2014-Jul-15 16:15N 33°05' W 029°26'5 3.1 25.8
2014-Jul-15 14:45N 33°09' W 029°29'0 0.0 25.5
2014-Jul-15 12:30N 33°09' W 029°29'1 2.8 24.9
2014-Jul-15 12:15N 33°09' W 029°30'   24.8

Dump ship's entire track history